createdAt,value
2018-04-26T00:01:02.043Z,10.60
2018-04-26T00:03:31.033Z,10.70
2018-04-26T00:06:00.180Z,10.60
2018-04-26T00:08:28.231Z,10.70
2018-04-26T00:10:56.628Z,10.70
2018-04-26T00:13:25.615Z,10.70
2018-04-26T00:15:54.089Z,10.70
2018-04-26T00:18:22.401Z,10.60
2018-04-26T00:20:50.786Z,10.50
2018-04-26T00:23:19.314Z,10.50
2018-04-26T00:25:47.492Z,10.50
2018-04-26T00:28:15.794Z,10.40
2018-04-26T00:30:44.143Z,10.50
2018-04-26T00:33:12.429Z,10.40
2018-04-26T00:35:40.702Z,10.20
2018-04-26T00:38:08.863Z,10.20
2018-04-26T00:40:37.985Z,10.30
2018-04-26T00:43:06.342Z,10.30
2018-04-26T00:45:35.546Z,10.20
2018-04-26T00:48:03.732Z,10.20
2018-04-26T00:50:32.652Z,10.20
2018-04-26T00:53:01.106Z,10.20
2018-04-26T00:55:29.226Z,10.10
2018-04-26T00:57:57.458Z,10.00
2018-04-26T01:00:25.751Z,9.90
2018-04-26T01:02:54.213Z,9.90
2018-04-26T01:05:22.276Z,9.90
2018-04-26T01:07:50.453Z,9.80
2018-04-26T01:10:18.840Z,9.80
2018-04-26T01:12:48.243Z,9.70
2018-04-26T01:15:16.418Z,9.70
2018-04-26T01:17:45.727Z,9.60
2018-04-26T01:20:14.210Z,9.60
2018-04-26T01:22:42.540Z,9.60
2018-04-26T01:25:10.859Z,9.50
2018-04-26T01:27:39.343Z,9.40
2018-04-26T01:30:07.741Z,9.40
2018-04-26T01:32:36.001Z,9.30
2018-04-26T01:35:04.052Z,9.20
2018-04-26T01:37:45.407Z,9.20
2018-04-26T01:40:13.525Z,9.20
2018-04-26T01:42:41.738Z,9.10
2018-04-26T01:45:10.659Z,9.10
2018-04-26T01:47:38.880Z,9.00
2018-04-26T01:50:08.146Z,9.00
2018-04-26T01:52:36.598Z,8.90
2018-04-26T01:55:04.873Z,9.00
2018-04-26T01:57:33.504Z,9.00
2018-04-26T02:00:01.912Z,9.00
2018-04-26T02:02:30.110Z,8.80
2018-04-26T02:04:58.500Z,8.80
2018-04-26T02:07:26.920Z,8.80
2018-04-26T02:09:55.266Z,8.70
2018-04-26T02:12:23.610Z,8.80
2018-04-26T02:14:52.058Z,8.80
2018-04-26T02:17:20.617Z,8.80
2018-04-26T02:19:49.018Z,8.80
2018-04-26T02:22:17.457Z,8.70
2018-04-26T02:24:45.612Z,8.70
2018-04-26T02:27:13.976Z,8.60
2018-04-26T02:29:42.184Z,8.60
2018-04-26T02:32:10.569Z,8.50
2018-04-26T02:34:38.755Z,8.40
2018-04-26T02:37:07.668Z,8.30
2018-04-26T02:39:35.835Z,8.10
2018-04-26T02:42:05.438Z,8.10
2018-04-26T02:44:33.735Z,8.10
2018-04-26T02:47:02.772Z,8.00
2018-04-26T02:49:31.187Z,8.00
2018-04-26T02:51:59.503Z,8.00
2018-04-26T02:54:28.110Z,7.90
2018-04-26T02:56:56.563Z,7.90
2018-04-26T02:59:24.781Z,7.70
2018-04-26T03:01:53.348Z,7.70
2018-04-26T03:04:21.933Z,7.70
2018-04-26T03:06:50.430Z,7.80
2018-04-26T03:09:19.578Z,7.80
2018-04-26T03:11:47.948Z,7.80
2018-04-26T03:14:18.381Z,7.80
2018-04-26T03:16:46.642Z,7.80
2018-04-26T03:19:14.794Z,7.80
2018-04-26T03:21:44.634Z,7.70
2018-04-26T03:24:13.023Z,7.70
2018-04-26T03:26:41.242Z,7.70
2018-04-26T03:29:10.371Z,7.70
2018-04-26T03:31:40.276Z,7.70
2018-04-26T03:34:09.718Z,7.70
2018-04-26T03:36:38.453Z,7.70
2018-04-26T03:39:08.161Z,7.70
2018-04-26T03:41:36.696Z,7.50
2018-04-26T03:44:05.125Z,7.50
2018-04-26T03:46:33.611Z,7.50
2018-04-26T03:49:01.867Z,7.50
2018-04-26T03:51:30.229Z,7.40
2018-04-26T03:53:58.723Z,7.30
2018-04-26T03:56:27.216Z,7.30
2018-04-26T03:58:55.639Z,7.30
2018-04-26T04:01:34.762Z,7.20
2018-04-26T04:04:14.043Z,7.30
2018-04-26T04:06:42.277Z,7.20
2018-04-26T04:09:10.869Z,7.20
2018-04-26T04:11:39.618Z,7.10
2018-04-26T04:14:09.296Z,7.20
2018-04-26T04:16:37.624Z,7.20
2018-04-26T04:19:06.257Z,7.30
2018-04-26T04:21:34.534Z,7.40
2018-04-26T04:24:03.202Z,7.40
2018-04-26T04:26:31.599Z,7.30
2018-04-26T04:29:00.271Z,7.30
2018-04-26T04:31:28.769Z,7.30
2018-04-26T04:33:57.137Z,7.30
2018-04-26T04:36:25.940Z,7.30
2018-04-26T04:38:55.207Z,7.30
2018-04-26T04:41:23.402Z,7.20
2018-04-26T04:43:52.093Z,7.20
2018-04-26T04:46:20.555Z,7.30
2018-04-26T04:48:48.864Z,7.10
2018-04-26T04:51:17.185Z,7.10
2018-04-26T04:53:45.553Z,7.20
2018-04-26T04:56:14.601Z,7.10
2018-04-26T04:58:42.755Z,7.10
2018-04-26T05:01:10.732Z,7.10
2018-04-26T05:03:39.466Z,7.10
2018-04-26T05:06:07.663Z,7.20
2018-04-26T05:08:36.182Z,7.30
2018-04-26T05:11:05.799Z,7.20
2018-04-26T05:13:34.228Z,7.20
2018-04-26T05:16:02.344Z,7.40
2018-04-26T05:18:30.812Z,7.40
2018-04-26T05:20:59.205Z,7.70
2018-04-26T05:23:27.903Z,7.80
2018-04-26T05:25:56.398Z,7.90
2018-04-26T05:28:25.356Z,8.10
2018-04-26T05:30:53.833Z,8.10
2018-04-26T05:33:22.651Z,8.10
2018-04-26T05:35:51.228Z,8.00
2018-04-26T05:38:21.557Z,8.40
2018-04-26T05:40:49.708Z,8.30
2018-04-26T05:43:19.186Z,8.10
2018-04-26T05:45:47.382Z,8.30
2018-04-26T05:48:15.839Z,8.30
2018-04-26T05:50:44.223Z,8.30
2018-04-26T05:53:12.644Z,8.40
2018-04-26T05:55:42.154Z,8.50
2018-04-26T05:58:11.054Z,8.70
2018-04-26T06:00:40.028Z,8.80
2018-04-26T06:03:09.460Z,8.90
2018-04-26T06:05:37.777Z,8.90
2018-04-26T06:08:07.168Z,8.90
2018-04-26T06:10:35.424Z,8.70
2018-04-26T06:13:03.620Z,8.60
2018-04-26T06:15:31.912Z,8.80
2018-04-26T06:18:00.391Z,8.80
2018-04-26T06:20:28.603Z,8.90
2018-04-26T06:22:57.587Z,8.90
2018-04-26T06:25:26.505Z,8.80
2018-04-26T06:27:54.573Z,8.80
2018-04-26T06:30:23.092Z,8.70
2018-04-26T06:32:51.263Z,8.60
2018-04-26T06:35:21.083Z,8.80
2018-04-26T06:37:49.703Z,9.00
2018-04-26T06:40:19.576Z,8.80
2018-04-26T06:42:47.849Z,8.80
2018-04-26T06:45:16.533Z,8.80
2018-04-26T06:47:46.449Z,8.80
2018-04-26T06:50:15.048Z,9.00
2018-04-26T06:52:43.361Z,9.20
2018-04-26T06:55:11.659Z,9.10
2018-04-26T06:57:40.367Z,9.20
2018-04-26T07:00:09.759Z,9.00
2018-04-26T07:02:38.773Z,9.00
2018-04-26T07:05:07.297Z,9.00
2018-04-26T07:07:35.823Z,9.10
2018-04-26T07:10:04.176Z,9.20
2018-04-26T07:12:32.519Z,9.30
2018-04-26T07:15:01.381Z,11.30
2018-04-26T07:17:29.864Z,11.40
2018-04-26T07:19:58.159Z,12.60
2018-04-26T07:22:26.961Z,11.90
2018-04-26T07:24:55.247Z,11.90
2018-04-26T07:27:23.497Z,11.00
2018-04-26T07:29:51.765Z,10.60
2018-04-26T07:32:20.206Z,10.10
2018-04-26T07:34:48.589Z,9.90
2018-04-26T07:37:16.905Z,10.00
2018-04-26T07:39:46.125Z,9.80
2018-04-26T07:42:14.173Z,9.70
2018-04-26T07:44:42.321Z,9.80
2018-04-26T07:47:11.841Z,10.10
2018-04-26T07:49:40.087Z,9.90
2018-04-26T07:52:08.486Z,10.50
2018-04-26T07:54:36.768Z,10.40
2018-04-26T07:57:05.201Z,10.60
2018-04-26T07:59:33.565Z,10.20
2018-04-26T08:02:01.680Z,10.30
2018-04-26T08:04:30.609Z,9.90
2018-04-26T08:06:58.702Z,10.10
2018-04-26T08:09:27.156Z,10.40
2018-04-26T08:11:55.282Z,11.90
2018-04-26T08:14:23.432Z,11.70
2018-04-26T08:16:51.612Z,11.20
2018-04-26T08:19:19.959Z,11.10
2018-04-26T08:21:48.309Z,10.90
2018-04-26T08:24:16.643Z,11.10
2018-04-26T08:26:44.666Z,10.90
2018-04-26T08:29:13.111Z,11.00
2018-04-26T08:31:41.470Z,10.80
2018-04-26T08:34:09.644Z,10.70
2018-04-26T08:36:37.829Z,11.00
2018-04-26T08:39:06.639Z,10.80
2018-04-26T08:41:34.794Z,11.00
2018-04-26T08:44:02.950Z,11.20
2018-04-26T08:46:31.085Z,10.70
2018-04-26T08:48:59.996Z,10.60
2018-04-26T08:51:28.347Z,10.60
2018-04-26T08:53:56.392Z,10.90
2018-04-26T08:56:24.763Z,11.50
2018-04-26T08:58:53.901Z,12.10
2018-04-26T09:01:22.076Z,12.10
2018-04-26T09:03:51.269Z,11.50
2018-04-26T09:06:20.541Z,11.20
2018-04-26T09:08:49.001Z,11.20
2018-04-26T09:11:17.269Z,10.90
2018-04-26T09:13:45.907Z,11.00
2018-04-26T09:16:14.282Z,10.70
2018-04-26T09:18:43.299Z,10.00
2018-04-26T09:21:11.684Z,9.90
2018-04-26T09:23:40.090Z,9.50
2018-04-26T09:26:08.463Z,8.80
2018-04-26T09:28:36.841Z,8.30
2018-04-26T09:31:05.225Z,8.20
2018-04-26T09:33:33.661Z,8.30
2018-04-26T09:36:03.151Z,7.90
2018-04-26T09:38:31.813Z,7.90
2018-04-26T09:41:00.759Z,8.30
2018-04-26T09:43:29.119Z,8.30
2018-04-26T09:45:58.070Z,8.90
2018-04-26T09:48:26.902Z,8.90
2018-04-26T09:50:55.289Z,8.90
2018-04-26T09:53:23.867Z,9.10
2018-04-26T09:55:52.992Z,9.70
2018-04-26T09:58:21.162Z,9.70
2018-04-26T10:00:53.376Z,10.00
2018-04-26T10:03:21.926Z,10.40
2018-04-26T10:05:54.713Z,10.40
2018-04-26T10:08:22.947Z,10.70
2018-04-26T10:10:52.282Z,11.00
2018-04-26T10:13:21.346Z,11.00
2018-04-26T10:15:50.809Z,11.10
2018-04-26T10:18:18.912Z,11.00
2018-04-26T10:20:47.130Z,11.20
2018-04-26T10:23:16.234Z,11.60
2018-04-26T10:25:45.278Z,11.80
2018-04-26T10:28:13.650Z,11.80
2018-04-26T10:30:44.451Z,11.90
2018-04-26T10:33:12.795Z,11.90
2018-04-26T10:35:41.177Z,11.80
2018-04-26T10:38:10.097Z,11.70
2018-04-26T10:40:38.913Z,11.40
2018-04-26T10:43:07.767Z,11.40
2018-04-26T10:45:35.990Z,11.40
2018-04-26T10:48:04.417Z,11.50
2018-04-26T10:50:32.433Z,11.70
2018-04-26T10:53:01.119Z,11.60
2018-04-26T10:55:29.239Z,11.60
2018-04-26T10:57:57.903Z,11.30
2018-04-26T11:00:26.401Z,11.20
2018-04-26T11:02:54.807Z,11.30
2018-04-26T11:05:23.124Z,11.40
2018-04-26T11:07:51.343Z,11.50
2018-04-26T11:10:19.544Z,11.40
2018-04-26T11:12:48.792Z,11.70
2018-04-26T11:15:16.860Z,11.70
2018-04-26T11:17:46.000Z,11.90
2018-04-26T11:20:15.064Z,12.30
2018-04-26T11:22:43.280Z,12.30
2018-04-26T11:25:11.656Z,12.70
2018-04-26T11:27:40.701Z,12.30
2018-04-26T11:30:08.775Z,12.20
2018-04-26T11:32:37.194Z,12.30
2018-04-26T11:35:06.397Z,12.30
2018-04-26T11:37:35.728Z,12.50
2018-04-26T11:40:04.253Z,12.50
2018-04-26T11:42:32.416Z,12.60
2018-04-26T11:45:00.845Z,12.50
2018-04-26T11:47:29.452Z,12.20
2018-04-26T11:49:58.675Z,12.50
2018-04-26T11:52:26.874Z,12.60
2018-04-26T11:54:55.058Z,12.40
2018-04-26T11:57:24.870Z,12.60
2018-04-26T11:59:53.919Z,12.50
2018-04-26T12:02:22.033Z,12.50
2018-04-26T12:04:50.189Z,12.70
2018-04-26T12:07:19.497Z,12.40
2018-04-26T12:09:48.456Z,12.60
2018-04-26T12:12:16.707Z,12.60
2018-04-26T12:14:44.832Z,12.90
2018-04-26T12:17:13.275Z,13.00
2018-04-26T12:19:42.490Z,13.20
2018-04-26T12:22:11.113Z,13.30
2018-04-26T12:24:39.948Z,12.90
2018-04-26T12:27:08.440Z,12.90
2018-04-26T12:29:36.610Z,12.60
2018-04-26T12:32:04.817Z,12.60
2018-04-26T12:34:33.912Z,12.50
2018-04-26T12:37:01.980Z,12.50
2018-04-26T12:39:31.551Z,12.80
2018-04-26T12:42:00.295Z,12.80
2018-04-26T12:44:28.581Z,13.00
2018-04-26T12:47:00.321Z,12.80
2018-04-26T12:49:28.616Z,12.90
2018-04-26T12:51:58.424Z,13.20
2018-04-26T12:54:27.141Z,13.20
2018-04-26T12:56:55.385Z,13.30
2018-04-26T12:59:23.764Z,13.20
2018-04-26T13:01:52.586Z,13.00
2018-04-26T13:04:21.168Z,12.80
2018-04-26T13:06:49.476Z,12.30
2018-04-26T13:09:17.759Z,12.20
2018-04-26T13:11:47.337Z,12.20
2018-04-26T13:14:15.599Z,12.20
2018-04-26T13:16:44.680Z,13.00
2018-04-26T13:19:13.489Z,13.00
2018-04-26T13:21:42.349Z,13.00
2018-04-26T13:24:10.822Z,13.50
2018-04-26T13:26:39.165Z,13.50
2018-04-26T13:29:07.684Z,13.60
2018-04-26T13:31:36.442Z,14.00
2018-04-26T13:34:05.585Z,14.10
2018-04-26T13:36:33.670Z,14.00
2018-04-26T13:39:01.958Z,13.70
2018-04-26T13:41:30.132Z,13.50
2018-04-26T13:43:58.388Z,13.70
2018-04-26T13:46:26.904Z,13.90
2018-04-26T13:48:56.308Z,13.90
2018-04-26T13:51:24.903Z,14.10
2018-04-26T13:53:53.711Z,14.30
2018-04-26T13:56:21.832Z,14.30
2018-04-26T13:58:50.195Z,14.60
2018-04-26T14:01:18.924Z,14.90
2018-04-26T14:03:47.763Z,14.40
2018-04-26T14:06:16.188Z,14.30
2018-04-26T14:08:45.613Z,14.30
2018-04-26T14:11:17.661Z,14.30
2018-04-26T14:13:47.160Z,14.60
2018-04-26T14:16:15.604Z,14.30
2018-04-26T14:18:43.754Z,14.10
2018-04-26T14:21:12.419Z,14.20
2018-04-26T14:23:40.636Z,14.10
2018-04-26T14:26:08.763Z,14.00
2018-04-26T14:28:38.018Z,14.80
2018-04-26T14:31:08.133Z,14.50
2018-04-26T14:33:37.267Z,14.40
2018-04-26T14:36:06.512Z,14.40
2018-04-26T14:38:35.802Z,14.10
2018-04-26T14:41:05.459Z,14.20
2018-04-26T14:43:33.589Z,14.10
2018-04-26T14:46:01.968Z,14.50
2018-04-26T14:48:30.280Z,14.40
2018-04-26T14:50:58.955Z,14.30
2018-04-26T14:53:27.134Z,14.00
2018-04-26T14:55:56.353Z,14.40
2018-04-26T14:58:24.798Z,14.40
2018-04-26T15:00:53.032Z,14.10
2018-04-26T15:03:21.498Z,13.80
2018-04-26T15:05:49.747Z,14.30
2018-04-26T15:08:18.833Z,14.60
2018-04-26T15:10:46.902Z,14.60
2018-04-26T15:13:15.299Z,14.70
2018-04-26T15:15:44.186Z,14.20
2018-04-26T15:18:12.290Z,14.20
2018-04-26T15:20:41.476Z,14.60
2018-04-26T15:23:10.463Z,14.90
2018-04-26T15:25:41.402Z,14.90
2018-04-26T15:28:10.764Z,14.40
2018-04-26T15:30:39.368Z,14.40
2018-04-26T15:33:08.453Z,14.40
2018-04-26T15:35:36.776Z,14.30
2018-04-26T15:38:05.734Z,14.30
2018-04-26T15:40:34.961Z,14.20
2018-04-26T15:43:03.233Z,14.20
2018-04-26T15:45:31.666Z,14.40
2018-04-26T15:48:00.114Z,14.40
2018-04-26T15:50:29.371Z,14.20
2018-04-26T15:55:12.480Z,14.60
2018-04-26T15:57:55.926Z,14.60
2018-04-26T16:01:34.005Z,14.10
2018-04-26T16:04:13.156Z,14.00
2018-04-26T16:07:16.857Z,14.10
2018-04-26T16:09:49.932Z,14.20
2018-04-26T16:14:41.253Z,14.30
2018-04-26T16:19:25.197Z,14.20
2018-04-26T16:24:11.524Z,14.10
2018-04-26T16:26:56.074Z,14.00
2018-04-26T16:29:40.015Z,13.90
2018-04-26T16:32:23.753Z,14.10
2018-04-26T16:36:04.528Z,13.90
2018-04-26T16:39:07.963Z,13.90
2018-04-26T16:41:37.030Z,13.60
2018-04-26T16:44:05.620Z,13.60
2018-04-26T16:46:34.861Z,13.70
2018-04-26T16:49:04.362Z,13.70
2018-04-26T16:51:33.328Z,13.60
2018-04-26T16:54:01.897Z,13.50
2018-04-26T16:56:30.361Z,13.60
2018-04-26T16:58:58.657Z,13.60
2018-04-26T17:01:27.271Z,13.60
2018-04-26T17:03:56.183Z,13.50
2018-04-26T17:06:24.774Z,13.50
2018-04-26T17:08:53.683Z,13.50
2018-04-26T17:11:22.211Z,13.50
2018-04-26T17:13:50.510Z,13.40
2018-04-26T17:16:19.368Z,13.40
2018-04-26T17:18:48.244Z,13.30
2018-04-26T17:21:17.527Z,13.30
2018-04-26T17:23:45.848Z,13.30
2018-04-26T17:26:16.143Z,13.10
2018-04-26T17:28:45.280Z,13.00
2018-04-26T17:31:13.520Z,13.00
2018-04-26T17:33:42.072Z,12.90
2018-04-26T17:36:10.633Z,12.90
2018-04-26T17:38:39.907Z,12.80
2018-04-26T17:41:09.243Z,12.80
2018-04-26T17:43:37.744Z,12.80
2018-04-26T17:46:09.497Z,12.70
2018-04-26T17:48:38.754Z,12.80
2018-04-26T17:51:07.257Z,12.70
2018-04-26T17:53:36.405Z,12.70
2018-04-26T17:56:04.620Z,12.70
2018-04-26T17:58:33.610Z,12.70
2018-04-26T18:01:01.773Z,12.60
2018-04-26T18:03:30.417Z,12.60
2018-04-26T18:05:59.279Z,12.60
2018-04-26T18:08:27.713Z,12.60
2018-04-26T18:10:56.711Z,12.50
2018-04-26T18:13:25.767Z,12.40
2018-04-26T18:15:53.784Z,12.40
2018-04-26T18:18:22.092Z,12.30
2018-04-26T18:20:50.583Z,12.30
2018-04-26T18:23:19.392Z,12.20
2018-04-26T18:25:48.365Z,12.10
2018-04-26T18:28:16.767Z,12.10
2018-04-26T18:30:46.301Z,12.10
2018-04-26T18:33:14.656Z,12.00
2018-04-26T18:35:43.831Z,11.80
2018-04-26T18:38:12.412Z,11.80
2018-04-26T18:40:40.752Z,11.70
2018-04-26T18:43:09.863Z,11.70
2018-04-26T18:45:37.455Z,11.70
2018-04-26T18:48:05.520Z,11.70
2018-04-26T18:50:33.801Z,11.60
2018-04-26T18:53:02.074Z,11.60
2018-04-26T18:55:30.400Z,11.50
2018-04-26T18:58:00.728Z,11.50
2018-04-26T19:00:28.977Z,11.50
2018-04-26T19:02:57.343Z,11.40
2018-04-26T19:05:26.336Z,11.40
2018-04-26T19:07:56.737Z,11.40
2018-04-26T19:10:25.340Z,11.40
2018-04-26T19:12:53.612Z,11.40
2018-04-26T19:15:23.346Z,11.30
2018-04-26T19:17:51.528Z,11.30
2018-04-26T19:20:19.760Z,11.20
2018-04-26T19:22:48.939Z,11.10
2018-04-26T19:25:18.280Z,11.10
2018-04-26T19:27:47.598Z,10.90
2018-04-26T19:30:17.425Z,10.70
2018-04-26T19:32:46.669Z,10.70
2018-04-26T19:35:15.345Z,10.70
2018-04-26T19:37:43.531Z,10.50
2018-04-26T19:40:13.158Z,10.60
2018-04-26T19:42:41.392Z,10.60
2018-04-26T19:45:09.432Z,10.70
2018-04-26T19:47:37.563Z,10.60
2018-04-26T19:50:06.833Z,10.60
2018-04-26T19:52:35.142Z,10.60
2018-04-26T19:55:03.609Z,10.60
2018-04-26T19:57:32.097Z,10.70
2018-04-26T20:00:00.248Z,10.70
2018-04-26T20:02:29.567Z,10.80
2018-04-26T20:04:57.832Z,10.70
2018-04-26T20:07:26.256Z,10.70
2018-04-26T20:09:55.314Z,10.60
2018-04-26T20:12:23.580Z,10.60
2018-04-26T20:14:51.961Z,10.60
2018-04-26T20:17:20.927Z,10.60
2018-04-26T20:19:49.956Z,10.50
2018-04-26T20:22:18.253Z,10.40
2018-04-26T20:24:47.366Z,10.50
2018-04-26T20:27:15.606Z,10.50
2018-04-26T20:29:43.999Z,10.60
2018-04-26T20:32:12.784Z,10.60
2018-04-26T20:34:42.926Z,10.50
2018-04-26T20:37:11.008Z,10.50
2018-04-26T20:39:39.560Z,10.40
2018-04-26T20:42:08.621Z,10.30
2018-04-26T20:44:47.819Z,10.30
2018-04-26T20:47:16.203Z,10.20
2018-04-26T20:49:44.697Z,10.30
2018-04-26T20:52:12.783Z,10.30
2018-04-26T20:54:41.095Z,10.30
2018-04-26T20:57:09.469Z,10.30
2018-04-26T20:59:37.949Z,10.30
2018-04-26T21:02:06.597Z,10.30
2018-04-26T21:04:35.115Z,10.10
2018-04-26T21:07:03.622Z,10.00
2018-04-26T21:09:31.656Z,10.00
2018-04-26T21:11:59.812Z,9.90
2018-04-26T21:14:29.192Z,9.90
2018-04-26T21:16:57.209Z,9.80
2018-04-26T21:19:26.208Z,9.70
2018-04-26T21:21:55.639Z,9.70
2018-04-26T21:24:24.110Z,9.70
2018-04-26T21:26:53.394Z,9.60
2018-04-26T21:29:22.093Z,9.60
2018-04-26T21:31:51.229Z,9.60
2018-04-26T21:34:19.401Z,9.50
2018-04-26T21:36:47.430Z,9.50
2018-04-26T21:39:16.046Z,9.50
2018-04-26T21:41:44.188Z,9.40
2018-04-26T21:44:13.692Z,9.40
2018-04-26T21:46:42.321Z,9.40
2018-04-26T21:49:10.959Z,9.40
2018-04-26T21:51:45.750Z,9.40
2018-04-26T21:54:19.655Z,9.30
2018-04-26T21:56:54.092Z,9.20
2018-04-26T21:59:28.676Z,9.10
2018-04-26T22:02:03.136Z,9.00
2018-04-26T22:04:32.158Z,9.00
2018-04-26T22:07:01.185Z,9.00
2018-04-26T22:09:29.462Z,9.00
2018-04-26T22:11:58.556Z,8.90
2018-04-26T22:14:26.947Z,8.90
2018-04-26T22:16:55.229Z,8.80
2018-04-26T22:19:23.448Z,8.80
2018-04-26T22:21:51.625Z,8.70
2018-04-26T22:24:19.920Z,8.70
2018-04-26T22:26:48.402Z,8.60
2018-04-26T22:29:16.905Z,8.60
2018-04-26T22:31:46.104Z,8.50
2018-04-26T22:34:14.909Z,8.50
2018-04-26T22:36:43.081Z,8.40
2018-04-26T22:39:12.341Z,8.20
2018-04-26T22:41:40.557Z,8.10
2018-04-26T22:44:09.095Z,8.20
2018-04-26T22:46:37.385Z,8.00
2018-04-26T22:49:05.552Z,7.80
2018-04-26T22:51:35.644Z,7.80
2018-04-26T22:54:04.891Z,7.70
2018-04-26T22:56:32.935Z,7.70
2018-04-26T22:59:01.044Z,7.80
2018-04-26T23:01:30.351Z,7.80
2018-04-26T23:03:59.400Z,7.80
2018-04-26T23:06:27.980Z,7.80
2018-04-26T23:08:56.257Z,7.80
2018-04-26T23:11:25.209Z,7.80
2018-04-26T23:13:54.145Z,7.80
2018-04-26T23:16:22.744Z,7.80
2018-04-26T23:18:51.824Z,7.80
2018-04-26T23:21:19.980Z,7.70
2018-04-26T23:23:48.332Z,7.70
2018-04-26T23:26:17.529Z,7.70
2018-04-26T23:28:46.050Z,7.60
2018-04-26T23:31:14.393Z,7.60
2018-04-26T23:33:42.844Z,7.60
2018-04-26T23:36:11.209Z,7.50
2018-04-26T23:38:40.272Z,7.40
2018-04-26T23:41:09.844Z,7.30
2018-04-26T23:43:39.112Z,7.10
2018-04-26T23:46:09.162Z,7.20
2018-04-26T23:48:37.492Z,7.20
2018-04-26T23:51:05.932Z,7.30
2018-04-26T23:53:34.140Z,7.30
2018-04-26T23:56:02.496Z,7.30
2018-04-26T23:58:32.687Z,7.30
